Terminal Aerodrome Forecast
Issued by NWS

Home | Current Version | Previous Version | Text Only | Print | Product List | Glossary On
Versions: 1 2 3 4 5 6 7 8 9 10 11 12 13 14
958
FTUS42 KGSP 072328
TAFGMU
TAF
KGMU 072328Z 0800/0824 35004KT P6SM SKC
     FM080800 25004KT P6SM FEW150
     FM081300 23005KT P6SM BKN090
     FM081700 22010KT P6SM BKN045
     FM081800 22011G19KT P6SM BKN050 PROB30 0818/0823 4SM -SHRA
      BKN025
     FM082300 25012G20KT P6SM BKN080=

USA.gov is the U.S. government's official web portal to all federal, state and local government web resources and services.